sensor_id;sensor_type;location;lat;lon;timestamp;pressure;altitude;pressure_sealevel;temperature;humidity
39243;BME280;29823;47.404;8.566;2023-07-09T00:01:13;96861.59;;;20.17;100.00
39243;BME280;29823;47.404;8.566;2023-07-09T00:03:44;96861.31;;;20.19;100.00
39243;BME280;29823;47.404;8.566;2023-07-09T00:06:15;96856.72;;;20.19;100.00
39243;BME280;29823;47.404;8.566;2023-07-09T00:08:47;96857.84;;;20.13;100.00
39243;BME280;29823;47.404;8.566;2023-07-09T00:11:16;96853.50;;;20.07;100.00
39243;BME280;29823;47.404;8.566;2023-07-09T00:13:45;96859.50;;;20.09;100.00
39243;BME280;29823;47.404;8.566;2023-07-09T00:16:16;96861.09;;;20.10;100.00
39243;BME280;29823;47.404;8.566;2023-07-09T00:18:46;96866.53;;;20.05;100.00
39243;BME280;29823;47.404;8.566;2023-07-09T00:21:16;96870.34;;;20.04;100.00
39243;BME280;29823;47.404;8.566;2023-07-09T00:23:44;96874.19;;;19.98;100.00
39243;BME280;29823;47.404;8.566;2023-07-09T00:26:13;96865.81;;;19.95;100.00
39243;BME280;29823;47.404;8.566;2023-07-09T00:28:45;96866.06;;;19.98;100.00
39243;BME280;29823;47.404;8.566;2023-07-09T00:31:24;96873.09;;;19.99;100.00
39243;BME280;29823;47.404;8.566;2023-07-09T00:33:53;96863.09;;;20.33;100.00
39243;BME280;29823;47.404;8.566;2023-07-09T00:36:26;96871.44;;;20.08;100.00
39243;BME280;29823;47.404;8.566;2023-07-09T00:38:55;96866.03;;;20.08;100.00
39243;BME280;29823;47.404;8.566;2023-07-09T00:41:26;96861.19;;;19.95;100.00
39243;BME280;29823;47.404;8.566;2023-07-09T00:43:55;96867.16;;;19.97;100.00
39243;BME280;29823;47.404;8.566;2023-07-09T00:49:31;96869.34;;;19.90;100.00
39243;BME280;29823;47.404;8.566;2023-07-09T00:52:02;96869.72;;;20.17;100.00
39243;BME280;29823;47.404;8.566;2023-07-09T00:54:32;96863.13;;;19.90;100.00
39243;BME280;29823;47.404;8.566;2023-07-09T00:57:06;96865.06;;;19.84;100.00
39243;BME280;29823;47.404;8.566;2023-07-09T00:59:39;96863.91;;;19.90;100.00
39243;BME280;29823;47.404;8.566;2023-07-09T01:02:07;96869.69;;;19.84;100.00
39243;BME280;29823;47.404;8.566;2023-07-09T01:04:37;96874.31;;;19.78;100.00
39243;BME280;29823;47.404;8.566;2023-07-09T01:07:06;96881.34;;;19.84;100.00
39243;BME280;29823;47.404;8.566;2023-07-09T01:09:35;96877.00;;;19.83;100.00
39243;BME280;29823;47.404;8.566;2023-07-09T01:12:08;96889.50;;;19.79;100.00
39243;BME280;29823;47.404;8.566;2023-07-09T01:14:38;96885.19;;;19.73;100.00
39243;BME280;29823;47.404;8.566;2023-07-09T01:17:07;96877.72;;;19.55;100.00
39243;BME280;29823;47.404;8.566;2023-07-09T01:19:42;96887.97;;;19.58;100.00
39243;BME280;29823;47.404;8.566;2023-07-09T01:22:14;96881.50;;;19.54;100.00
39243;BME280;29823;47.404;8.566;2023-07-09T01:24:57;96886.38;;;19.52;100.00
39243;BME280;29823;47.404;8.566;2023-07-09T01:27:30;96888.59;;;19.45;100.00
39243;BME280;29823;47.404;8.566;2023-07-09T01:30:02;96899.69;;;19.49;100.00
39243;BME280;29823;47.404;8.566;2023-07-09T01:32:32;96898.59;;;19.55;100.00
39243;BME280;29823;47.404;8.566;2023-07-09T01:35:03;96890.78;;;19.43;100.00
39243;BME280;29823;47.404;8.566;2023-07-09T01:37:37;96891.84;;;19.42;100.00
39243;BME280;29823;47.404;8.566;2023-07-09T01:40:06;96892.13;;;19.46;100.00
39243;BME280;29823;47.404;8.566;2023-07-09T01:42:56;96898.59;;;19.55;100.00
39243;BME280;29823;47.404;8.566;2023-07-09T01:45:26;96889.66;;;19.49;100.00
39243;BME280;29823;47.404;8.566;2023-07-09T01:47:54;96889.13;;;19.47;100.00
39243;BME280;29823;47.404;8.566;2023-07-09T01:50:23;96890.22;;;19.46;100.00
39243;BME280;29823;47.404;8.566;2023-07-09T01:52:53;96890.81;;;19.38;100.00
39243;BME280;29823;47.404;8.566;2023-07-09T01:55:22;96897.88;;;19.34;100.00
39243;BME280;29823;47.404;8.566;2023-07-09T01:57:50;96888.38;;;19.37;100.00
39243;BME280;29823;47.404;8.566;2023-07-09T02:00:19;96900.06;;;19.32;100.00
39243;BME280;29823;47.404;8.566;2023-07-09T02:02:47;96895.16;;;19.29;100.00
39243;BME280;29823;47.404;8.566;2023-07-09T02:05:17;96887.06;;;19.24;100.00
39243;BME280;29823;47.404;8.566;2023-07-09T02:07:45;96889.50;;;19.16;100.00
39243;BME280;29823;47.404;8.566;2023-07-09T02:10:16;96896.81;;;19.25;100.00
39243;BME280;29823;47.404;8.566;2023-07-09T02:12:45;96901.13;;;19.26;100.00
39243;BME280;29823;47.404;8.566;2023-07-09T02:15:13;96895.75;;;19.11;100.00
39243;BME280;29823;47.404;8.566;2023-07-09T02:17:42;96893.84;;;19.02;100.00
39243;BME280;29823;47.404;8.566;2023-07-09T02:20:11;96897.91;;;19.04;100.00
39243;BME280;29823;47.404;8.566;2023-07-09T02:22:39;96895.19;;;19.04;100.00
39243;BME280;29823;47.404;8.566;2023-07-09T02:25:08;96886.84;;;18.86;100.00
39243;BME280;29823;47.404;8.566;2023-07-09T02:27:37;96897.66;;;19.01;100.00
39243;BME280;29823;47.404;8.566;2023-07-09T02:30:06;96896.88;;;19.00;100.00
39243;BME280;29823;47.404;8.566;2023-07-09T02:32:35;96893.34;;;18.95;100.00
39243;BME280;29823;47.404;8.566;2023-07-09T02:35:03;96897.41;;;18.92;100.00
39243;BME280;29823;47.404;8.566;2023-07-09T02:37:31;96900.69;;;18.89;100.00
39243;BME280;29823;47.404;8.566;2023-07-09T02:39:59;96905.56;;;18.72;100.00
39243;BME280;29823;47.404;8.566;2023-07-09T02:42:27;96896.63;;;18.82;100.00
39243;BME280;29823;47.404;8.566;2023-07-09T02:44:56;96903.38;;;18.89;100.00
39243;BME280;29823;47.404;8.566;2023-07-09T02:47:24;96900.44;;;18.76;100.00
39243;BME280;29823;47.404;8.566;2023-07-09T02:49:52;96911.53;;;18.69;100.00
39243;BME280;29823;47.404;8.566;2023-07-09T02:52:19;96906.94;;;18.50;100.00
39243;BME280;29823;47.404;8.566;2023-07-09T02:54:47;96914.78;;;18.66;100.00
39243;BME280;29823;47.404;8.566;2023-07-09T02:57:16;96911.81;;;18.63;100.00
39243;BME280;29823;47.404;8.566;2023-07-09T02:59:44;96901.78;;;18.73;100.00
39243;BME280;29823;47.404;8.566;2023-07-09T03:02:13;96909.91;;;18.73;100.00
39243;BME280;29823;47.404;8.566;2023-07-09T03:04:41;96913.16;;;18.60;100.00
39243;BME280;29823;47.404;8.566;2023-07-09T03:07:09;96927.53;;;18.61;100.00
39243;BME280;29823;47.404;8.566;2023-07-09T03:09:37;96921.28;;;18.55;100.00
39243;BME280;29823;47.404;8.566;2023-07-09T03:12:06;96924.00;;;18.60;100.00
39243;BME280;29823;47.404;8.566;2023-07-09T03:14:35;96920.19;;;18.56;100.00
39243;BME280;29823;47.404;8.566;2023-07-09T03:17:03;96924.25;;;18.64;100.00
39243;BME280;29823;47.404;8.566;2023-07-09T03:19:33;96922.38;;;18.59;100.00
39243;BME280;29823;47.404;8.566;2023-07-09T03:22:03;96937.00;;;18.58;100.00
39243;BME280;29823;47.404;8.566;2023-07-09T03:24:31;96924.00;;;18.70;100.00
39243;BME280;29823;47.404;8.566;2023-07-09T03:26:59;96921.56;;;18.64;100.00
39243;BME280;29823;47.404;8.566;2023-07-09T03:29:27;96929.16;;;18.57;100.00
39243;BME280;29823;47.404;8.566;2023-07-09T03:31:57;96925.09;;;18.54;100.00
39243;BME280;29823;47.404;8.566;2023-07-09T03:34:25;96931.06;;;18.41;100.00
39243;BME280;29823;47.404;8.566;2023-07-09T03:36:54;96938.63;;;18.44;100.00
39243;BME280;29823;47.404;8.566;2023-07-09T03:39:22;96940.25;;;18.60;100.00
39243;BME280;29823;47.404;8.566;2023-07-09T03:41:50;96938.88;;;18.53;100.00
39243;BME280;29823;47.404;8.566;2023-07-09T03:44:19;96940.25;;;18.50;100.00
39243;BME280;29823;47.404;8.566;2023-07-09T03:46:47;96947.03;;;18.63;100.00
39243;BME280;29823;47.404;8.566;2023-07-09T03:49:15;96942.69;;;18.57;100.00
39243;BME280;29823;47.404;8.566;2023-07-09T03:51:43;96945.41;;;18.52;100.00
39243;BME280;29823;47.404;8.566;2023-07-09T03:54:12;96946.75;;;18.54;100.00
39243;BME280;29823;47.404;8.566;2023-07-09T03:56:40;96947.56;;;18.55;100.00
39243;BME280;29823;47.404;8.566;2023-07-09T03:59:08;96938.63;;;18.49;100.00
39243;BME280;29823;47.404;8.566;2023-07-09T04:01:35;96945.66;;;18.65;100.00
39243;BME280;29823;47.404;8.566;2023-07-09T04:04:03;96946.22;;;18.67;100.00
39243;BME280;29823;47.404;8.566;2023-07-09T04:06:31;96944.03;;;18.69;100.00
39243;BME280;29823;47.404;8.566;2023-07-09T04:08:59;96948.91;;;18.72;100.00
39243;BME280;29823;47.404;8.566;2023-07-09T04:11:28;96940.78;;;18.77;100.00
39243;BME280;29823;47.404;8.566;2023-07-09T04:13:56;96946.50;;;18.81;100.00
39243;BME280;29823;47.404;8.566;2023-07-09T04:16:24;96946.19;;;18.87;100.00
39243;BME280;29823;47.404;8.566;2023-07-09T04:18:52;96941.31;;;18.89;100.00
39243;BME280;29823;47.404;8.566;2023-07-09T04:21:20;96942.13;;;18.95;100.00
39243;BME280;29823;47.404;8.566;2023-07-09T04:23:48;96939.69;;;18.93;100.00
39243;BME280;29823;47.404;8.566;2023-07-09T04:26:16;96946.19;;;19.02;100.00
39243;BME280;29823;47.404;8.566;2023-07-09T04:28:45;96950.50;;;19.13;100.00
39243;BME280;29823;47.404;8.566;2023-07-09T04:31:13;96951.59;;;19.27;100.00
39243;BME280;29823;47.404;8.566;2023-07-09T04:33:41;96955.91;;;19.33;100.00
39243;BME280;29823;47.404;8.566;2023-07-09T04:36:09;96953.72;;;19.35;100.00
39243;BME280;29823;47.404;8.566;2023-07-09T04:38:39;96965.38;;;19.46;100.00
39243;BME280;29823;47.404;8.566;2023-07-09T04:41:07;96960.69;;;19.56;100.00
39243;BME280;29823;47.404;8.566;2023-07-09T04:43:35;96961.75;;;19.65;100.00
39243;BME280;29823;47.404;8.566;2023-07-09T04:46:04;96952.50;;;19.71;100.00
39243;BME280;29823;47.404;8.566;2023-07-09T04:48:33;96960.34;;;19.78;100.00
39243;BME280;29823;47.404;8.566;2023-07-09T04:51:01;96963.56;;;19.90;100.00
39243;BME280;29823;47.404;8.566;2023-07-09T04:53:29;96964.94;;;19.82;100.00
39243;BME280;29823;47.404;8.566;2023-07-09T04:55:57;96957.56;;;19.88;100.00
39243;BME280;29823;47.404;8.566;2023-07-09T04:58:24;96965.44;;;19.89;100.00
39243;BME280;29823;47.404;8.566;2023-07-09T05:00:56;96966.00;;;19.91;100.00
39243;BME280;29823;47.404;8.566;2023-07-09T05:03:25;96958.56;;;20.12;100.00
39243;BME280;29823;47.404;8.566;2023-07-09T05:05:53;96956.81;;;20.31;100.00
39243;BME280;29823;47.404;8.566;2023-07-09T05:08:21;96962.19;;;20.41;100.00
39243;BME280;29823;47.404;8.566;2023-07-09T05:10:50;96950.13;;;20.57;100.00
39243;BME280;29823;47.404;8.566;2023-07-09T05:13:19;96953.09;;;20.55;100.00
39243;BME280;29823;47.404;8.566;2023-07-09T05:15:47;96958.38;;;20.75;100.00
39243;BME280;29823;47.404;8.566;2023-07-09T05:18:15;96961.41;;;20.69;100.00
39243;BME280;29823;47.404;8.566;2023-07-09T05:20:46;96963.50;;;20.82;100.00
39243;BME280;29823;47.404;8.566;2023-07-09T05:23:14;96959.03;;;20.96;100.00
39243;BME280;29823;47.404;8.566;2023-07-09T05:25:42;96966.84;;;21.07;100.00
39243;BME280;29823;47.404;8.566;2023-07-09T05:28:10;96964.75;;;21.23;100.00
39243;BME280;29823;47.404;8.566;2023-07-09T05:30:41;96963.16;;;21.22;100.00
39243;BME280;29823;47.404;8.566;2023-07-09T05:33:09;96963.06;;;21.32;100.00
39243;BME280;29823;47.404;8.566;2023-07-09T05:35:36;96964.69;;;21.56;100.00
39243;BME280;29823;47.404;8.566;2023-07-09T05:38:06;96962.31;;;21.73;100.00
39243;BME280;29823;47.404;8.566;2023-07-09T05:40:33;96961.63;;;21.86;100.00
39243;BME280;29823;47.404;8.566;2023-07-09T05:43:01;96967.91;;;22.05;100.00
39243;BME280;29823;47.404;8.566;2023-07-09T05:45:30;96968.81;;;22.19;100.00
39243;BME280;29823;47.404;8.566;2023-07-09T05:47:58;96965.81;;;22.21;100.00
39243;BME280;29823;47.404;8.566;2023-07-09T05:50:27;96969.53;;;22.25;100.00
39243;BME280;29823;47.404;8.566;2023-07-09T05:52:55;96963.66;;;22.36;100.00
39243;BME280;29823;47.404;8.566;2023-07-09T05:55:25;96958.97;;;22.60;100.00
39243;BME280;29823;47.404;8.566;2023-07-09T05:57:53;96947.97;;;22.65;100.00
39243;BME280;29823;47.404;8.566;2023-07-09T06:00:21;96957.63;;;22.76;100.00
39243;BME280;29823;47.404;8.566;2023-07-09T06:02:49;96955.66;;;22.95;100.00
39243;BME280;29823;47.404;8.566;2023-07-09T06:05:17;96958.28;;;23.19;100.00
39243;BME280;29823;47.404;8.566;2023-07-09T06:07:45;96957.38;;;23.23;100.00
39243;BME280;29823;47.404;8.566;2023-07-09T06:10:14;96955.31;;;23.15;100.00
39243;BME280;29823;47.404;8.566;2023-07-09T06:12:44;96957.59;;;23.40;100.00
39243;BME280;29823;47.404;8.566;2023-07-09T06:15:12;96961.16;;;23.54;100.00
39243;BME280;29823;47.404;8.566;2023-07-09T06:17:40;96957.13;;;23.65;100.00
39243;BME280;29823;47.404;8.566;2023-07-09T06:20:09;96954.59;;;23.82;100.00
39243;BME280;29823;47.404;8.566;2023-07-09T06:22:37;96952.88;;;24.13;100.00
39243;BME280;29823;47.404;8.566;2023-07-09T06:25:06;96955.44;;;23.96;100.00
39243;BME280;29823;47.404;8.566;2023-07-09T06:27:34;96952.50;;;24.06;100.00
39243;BME280;29823;47.404;8.566;2023-07-09T06:30:03;96954.81;;;23.99;100.00
39243;BME280;29823;47.404;8.566;2023-07-09T06:32:31;96946.22;;;24.41;100.00
39243;BME280;29823;47.404;8.566;2023-07-09T06:34:59;96959.81;;;24.68;100.00
39243;BME280;29823;47.404;8.566;2023-07-09T06:37:27;96962.25;;;24.92;100.00
39243;BME280;29823;47.404;8.566;2023-07-09T06:39:55;96954.34;;;25.12;100.00
39243;BME280;29823;47.404;8.566;2023-07-09T06:42:23;96961.84;;;24.98;100.00
39243;BME280;29823;47.404;8.566;2023-07-09T06:44:50;96960.47;;;25.31;100.00
39243;BME280;29823;47.404;8.566;2023-07-09T06:47:20;96957.44;;;25.41;99.47
39243;BME280;29823;47.404;8.566;2023-07-09T06:49:48;96959.53;;;25.44;99.64
39243;BME280;29823;47.404;8.566;2023-07-09T06:52:15;96964.22;;;25.74;91.14
39243;BME280;29823;47.404;8.566;2023-07-09T06:54:43;96960.78;;;26.16;90.58
39243;BME280;29823;47.404;8.566;2023-07-09T06:57:11;96956.00;;;26.30;86.03
39243;BME280;29823;47.404;8.566;2023-07-09T06:59:39;96957.19;;;26.55;82.18
39243;BME280;29823;47.404;8.566;2023-07-09T07:02:07;96956.03;;;26.64;80.43
39243;BME280;29823;47.404;8.566;2023-07-09T07:04:37;96950.34;;;26.27;82.16
39243;BME280;29823;47.404;8.566;2023-07-09T07:07:04;96956.00;;;26.47;82.49
39243;BME280;29823;47.404;8.566;2023-07-09T07:09:32;96949.41;;;26.57;82.73
39243;BME280;29823;47.404;8.566;2023-07-09T07:12:00;96954.13;;;26.73;84.08
39243;BME280;29823;47.404;8.566;2023-07-09T07:14:28;96946.81;;;27.20;80.40
39243;BME280;29823;47.404;8.566;2023-07-09T07:16:57;96943.69;;;27.38;79.52
39243;BME280;29823;47.404;8.566;2023-07-09T07:19:26;96935.69;;;27.71;72.04
39243;BME280;29823;47.404;8.566;2023-07-09T07:21:55;96932.06;;;27.87;71.09
39243;BME280;29823;47.404;8.566;2023-07-09T07:24:23;96923.66;;;28.42;69.45
39243;BME280;29823;47.404;8.566;2023-07-09T07:26:51;96927.00;;;28.47;64.60
39243;BME280;29823;47.404;8.566;2023-07-09T07:29:19;96926.44;;;28.33;63.07
39243;BME280;29823;47.404;8.566;2023-07-09T07:31:47;96923.72;;;28.04;63.26
39243;BME280;29823;47.404;8.566;2023-07-09T07:34:15;96928.63;;;28.48;62.90
39243;BME280;29823;47.404;8.566;2023-07-09T07:36:43;96923.00;;;28.16;62.75
39243;BME280;29823;47.404;8.566;2023-07-09T07:39:13;96915.84;;;28.23;63.64
39243;BME280;29823;47.404;8.566;2023-07-09T07:41:42;96920.44;;;28.60;62.09
39243;BME280;29823;47.404;8.566;2023-07-09T07:44:09;96903.25;;;29.28;59.36
39243;BME280;29823;47.404;8.566;2023-07-09T07:46:37;96914.97;;;29.13;59.83
39243;BME280;29823;47.404;8.566;2023-07-09T07:49:05;96908.94;;;29.32;58.25
39243;BME280;29823;47.404;8.566;2023-07-09T07:51:33;96906.06;;;29.40;54.75
39243;BME280;29823;47.404;8.566;2023-07-09T07:54:01;96911.34;;;29.45;55.22
39243;BME280;29823;47.404;8.566;2023-07-09T07:56:30;96915.66;;;29.22;54.77
39243;BME280;29823;47.404;8.566;2023-07-09T07:58:58;96910.25;;;29.82;55.47
39243;BME280;29823;47.404;8.566;2023-07-09T08:01:26;96900.94;;;29.63;55.82
39243;BME280;29823;47.404;8.566;2023-07-09T08:03:54;96900.84;;;29.95;53.64
39243;BME280;29823;47.404;8.566;2023-07-09T08:06:22;96906.78;;;29.61;52.59
39243;BME280;29823;47.404;8.566;2023-07-09T08:08:50;96899.13;;;30.03;51.58
39243;BME280;29823;47.404;8.566;2023-07-09T08:11:18;96900.50;;;29.97;50.79
39243;BME280;29823;47.404;8.566;2023-07-09T08:13:47;96902.22;;;29.89;51.35
39243;BME280;29823;47.404;8.566;2023-07-09T08:16:15;96906.59;;;30.78;50.36
39243;BME280;29823;47.404;8.566;2023-07-09T08:18:45;96895.66;;;30.81;50.23
39243;BME280;29823;47.404;8.566;2023-07-09T08:21:13;96902.81;;;30.58;49.93
39243;BME280;29823;47.404;8.566;2023-07-09T08:23:41;96891.41;;;30.32;50.50
39243;BME280;29823;47.404;8.566;2023-07-09T08:26:09;96895.75;;;30.85;48.32
39243;BME280;29823;47.404;8.566;2023-07-09T08:28:37;96893.81;;;31.01;48.17
39243;BME280;29823;47.404;8.566;2023-07-09T08:31:06;96891.84;;;31.29;48.48
39243;BME280;29823;47.404;8.566;2023-07-09T08:33:35;96893.22;;;31.50;48.12
39243;BME280;29823;47.404;8.566;2023-07-09T08:36:04;96896.44;;;31.52;48.28
39243;BME280;29823;47.404;8.566;2023-07-09T08:38:32;96903.81;;;31.48;47.96
39243;BME280;29823;47.404;8.566;2023-07-09T08:41:06;96898.19;;;31.29;47.19
39243;BME280;29823;47.404;8.566;2023-07-09T08:43:43;96897.94;;;31.65;47.35
39243;BME280;29823;47.404;8.566;2023-07-09T08:46:21;96904.28;;;31.66;48.43
39243;BME280;29823;47.404;8.566;2023-07-09T08:48:54;96902.41;;;32.85;45.59
39243;BME280;29823;47.404;8.566;2023-07-09T08:51:38;96912.41;;;31.59;47.46
39243;BME280;29823;47.404;8.566;2023-07-09T08:54:11;96895.00;;;33.12;45.34
39243;BME280;29823;47.404;8.566;2023-07-09T08:56:43;96897.78;;;33.31;45.41
39243;BME280;29823;47.404;8.566;2023-07-09T08:59:14;96900.56;;;33.53;43.17
39243;BME280;29823;47.404;8.566;2023-07-09T09:01:50;96904.69;;;33.21;41.51
39243;BME280;29823;47.404;8.566;2023-07-09T09:04:21;96908.94;;;33.57;42.92
39243;BME280;29823;47.404;8.566;2023-07-09T09:06:54;96910.72;;;34.13;42.80
39243;BME280;29823;47.404;8.566;2023-07-09T09:09:31;96906.38;;;33.26;44.68
39243;BME280;29823;47.404;8.566;2023-07-09T09:12:11;96911.06;;;33.63;45.10
39243;BME280;29823;47.404;8.566;2023-07-09T09:14:43;96907.72;;;33.54;43.54
39243;BME280;29823;47.404;8.566;2023-07-09T09:17:16;96913.13;;;34.67;42.21
39243;BME280;29823;47.404;8.566;2023-07-09T09:19:47;96910.00;;;33.71;42.33
39243;BME280;29823;47.404;8.566;2023-07-09T09:22:21;96913.50;;;34.13;43.11
39243;BME280;29823;47.404;8.566;2023-07-09T09:24:57;96919.72;;;34.55;42.63
39243;BME280;29823;47.404;8.566;2023-07-09T09:27:27;96903.81;;;34.52;41.68
39243;BME280;29823;47.404;8.566;2023-07-09T09:29:55;96904.22;;;35.13;40.09
39243;BME280;29823;47.404;8.566;2023-07-09T09:32:26;96903.31;;;34.21;40.38
39243;BME280;29823;47.404;8.566;2023-07-09T09:34:55;96898.78;;;34.91;41.25
39243;BME280;29823;47.404;8.566;2023-07-09T09:37:28;96897.31;;;35.33;39.48
39243;BME280;29823;47.404;8.566;2023-07-09T09:39:58;96897.97;;;35.60;39.27
39243;BME280;29823;47.404;8.566;2023-07-09T09:42:29;96888.09;;;36.06;38.32
39243;BME280;29823;47.404;8.566;2023-07-09T09:44:57;96892.00;;;34.88;40.23
39243;BME280;29823;47.404;8.566;2023-07-09T09:47:27;96895.38;;;35.04;40.66
39243;BME280;29823;47.404;8.566;2023-07-09T09:49:55;96894.47;;;34.97;39.17
39243;BME280;29823;47.404;8.566;2023-07-09T09:52:30;96894.31;;;35.16;37.83
39243;BME280;29823;47.404;8.566;2023-07-09T09:55:03;96891.78;;;36.88;36.57
39243;BME280;29823;47.404;8.566;2023-07-09T09:57:36;96894.88;;;36.66;35.52
39243;BME280;29823;47.404;8.566;2023-07-09T10:00:05;96890.81;;;36.56;35.11
39243;BME280;29823;47.404;8.566;2023-07-09T10:02:39;96892.00;;;36.01;35.96
39243;BME280;29823;47.404;8.566;2023-07-09T10:05:12;96888.44;;;34.88;37.38
39243;BME280;29823;47.404;8.566;2023-07-09T10:07:43;96885.34;;;36.74;36.20
39243;BME280;29823;47.404;8.566;2023-07-09T10:10:16;96891.03;;;35.43;37.63
39243;BME280;29823;47.404;8.566;2023-07-09T10:12:50;96888.78;;;35.92;36.36
39243;BME280;29823;47.404;8.566;2023-07-09T10:15:31;96878.56;;;36.10;36.50
39243;BME280;29823;47.404;8.566;2023-07-09T10:18:09;96880.22;;;36.79;36.16
39243;BME280;29823;47.404;8.566;2023-07-09T10:20:46;96878.78;;;37.10;35.51
39243;BME280;29823;47.404;8.566;2023-07-09T10:23:24;96882.50;;;37.63;35.85
39243;BME280;29823;47.404;8.566;2023-07-09T10:25:57;96879.34;;;37.92;34.55
39243;BME280;29823;47.404;8.566;2023-07-09T10:28:41;96878.50;;;37.60;34.42
39243;BME280;29823;47.404;8.566;2023-07-09T10:31:15;96869.72;;;38.35;33.77
39243;BME280;29823;47.404;8.566;2023-07-09T10:33:56;96859.13;;;36.85;35.53
39243;BME280;29823;47.404;8.566;2023-07-09T10:36:48;96861.31;;;36.45;32.64
39243;BME280;29823;47.404;8.566;2023-07-09T10:39:22;96860.91;;;37.35;33.74
39243;BME280;29823;47.404;8.566;2023-07-09T10:41:55;96860.91;;;37.35;35.86
39243;BME280;29823;47.404;8.566;2023-07-09T10:44:30;96853.28;;;38.65;32.00
39243;BME280;29823;47.404;8.566;2023-07-09T10:47:03;96855.41;;;38.05;33.47
39243;BME280;29823;47.404;8.566;2023-07-09T10:49:38;96853.78;;;37.83;33.61
39243;BME280;29823;47.404;8.566;2023-07-09T10:52:13;96846.63;;;38.03;34.45
39243;BME280;29823;47.404;8.566;2023-07-09T10:54:52;96840.38;;;36.75;33.26
39243;BME280;29823;47.404;8.566;2023-07-09T10:57:28;96845.34;;;38.57;33.44
39243;BME280;29823;47.404;8.566;2023-07-09T10:59:57;96840.63;;;37.91;32.37
39243;BME280;29823;47.404;8.566;2023-07-09T11:02:30;96840.84;;;36.98;33.77
39243;BME280;29823;47.404;8.566;2023-07-09T11:05:02;96836.59;;;37.36;34.16
39243;BME280;29823;47.404;8.566;2023-07-09T11:07:33;96837.22;;;36.80;33.16
39243;BME280;29823;47.404;8.566;2023-07-09T11:10:06;96833.78;;;38.51;31.58
39243;BME280;29823;47.404;8.566;2023-07-09T11:12:41;96818.22;;;39.36;31.73
39243;BME280;29823;47.404;8.566;2023-07-09T11:15:15;96831.41;;;39.39;30.49
39243;BME280;29823;47.404;8.566;2023-07-09T11:17:45;96835.25;;;38.80;31.68
39243;BME280;29823;47.404;8.566;2023-07-09T11:20:24;96821.81;;;38.51;30.47
39243;BME280;29823;47.404;8.566;2023-07-09T11:22:54;96823.44;;;40.33;30.05
39243;BME280;29823;47.404;8.566;2023-07-09T11:25:31;96828.00;;;40.13;30.39
39243;BME280;29823;47.404;8.566;2023-07-09T11:28:04;96818.94;;;39.98;29.75
39243;BME280;29823;47.404;8.566;2023-07-09T11:30:33;96823.69;;;41.92;28.76
39243;BME280;29823;47.404;8.566;2023-07-09T11:33:16;96823.97;;;43.41;28.16
39243;BME280;29823;47.404;8.566;2023-07-09T11:36:06;96827.38;;;43.84;27.09
39243;BME280;29823;47.404;8.566;2023-07-09T11:38:40;96820.13;;;43.15;26.06
39243;BME280;29823;47.404;8.566;2023-07-09T11:41:26;96822.25;;;43.27;26.73
39243;BME280;29823;47.404;8.566;2023-07-09T11:44:04;96825.25;;;44.52;23.79
39243;BME280;29823;47.404;8.566;2023-07-09T11:46:35;96825.94;;;43.44;24.42
39243;BME280;29823;47.404;8.566;2023-07-09T11:49:04;96810.47;;;44.16;23.80
39243;BME280;29823;47.404;8.566;2023-07-09T11:51:41;96816.50;;;42.56;24.84
39243;BME280;29823;47.404;8.566;2023-07-09T11:54:12;96805.16;;;41.71;26.68
39243;BME280;29823;47.404;8.566;2023-07-09T11:56:40;96811.03;;;42.03;25.26
39243;BME280;29823;47.404;8.566;2023-07-09T11:59:11;96815.44;;;41.28;26.03
39243;BME280;29823;47.404;8.566;2023-07-09T12:01:42;96812.56;;;43.28;24.84
39243;BME280;29823;47.404;8.566;2023-07-09T12:04:13;96816.63;;;42.49;27.18
39243;BME280;29823;47.404;8.566;2023-07-09T12:06:44;96813.00;;;43.27;23.16
39243;BME280;29823;47.404;8.566;2023-07-09T12:09:14;96807.69;;;40.42;24.11
39243;BME280;29823;47.404;8.566;2023-07-09T12:11:44;96807.34;;;41.34;24.62
39243;BME280;29823;47.404;8.566;2023-07-09T12:14:13;96807.25;;;42.36;25.26
39243;BME280;29823;47.404;8.566;2023-07-09T12:16:43;96802.75;;;41.17;24.73
39243;BME280;29823;47.404;8.566;2023-07-09T12:19:14;96802.41;;;41.41;26.30
39243;BME280;29823;47.404;8.566;2023-07-09T12:21:49;96797.47;;;41.98;25.39
39243;BME280;29823;47.404;8.566;2023-07-09T12:24:22;96798.00;;;42.36;24.58
39243;BME280;29823;47.404;8.566;2023-07-09T12:26:51;96793.78;;;43.06;23.87
39243;BME280;29823;47.404;8.566;2023-07-09T12:29:19;96782.75;;;42.56;24.92
39243;BME280;29823;47.404;8.566;2023-07-09T12:31:49;96782.38;;;43.13;22.99
39243;BME280;29823;47.404;8.566;2023-07-09T12:34:17;96783.66;;;41.84;25.38
39243;BME280;29823;47.404;8.566;2023-07-09T12:36:50;96785.72;;;43.59;21.88
39243;BME280;29823;47.404;8.566;2023-07-09T12:39:23;96791.44;;;43.56;23.04
39243;BME280;29823;47.404;8.566;2023-07-09T12:41:55;96781.59;;;43.28;22.92
39243;BME280;29823;47.404;8.566;2023-07-09T12:44:24;96775.75;;;43.87;22.50
39243;BME280;29823;47.404;8.566;2023-07-09T12:46:53;96774.63;;;42.19;22.69
39243;BME280;29823;47.404;8.566;2023-07-09T12:49:23;96779.06;;;41.48;25.17
39243;BME280;29823;47.404;8.566;2023-07-09T12:51:53;96778.06;;;43.24;23.54
39243;BME280;29823;47.404;8.566;2023-07-09T12:54:21;96769.00;;;43.33;24.87
39243;BME280;29823;47.404;8.566;2023-07-09T12:56:51;96759.88;;;41.92;26.10
39243;BME280;29823;47.404;8.566;2023-07-09T12:59:19;96764.34;;;43.26;24.20
39243;BME280;29823;47.404;8.566;2023-07-09T13:01:49;96763.47;;;43.29;23.04
39243;BME280;29823;47.404;8.566;2023-07-09T13:04:17;96767.06;;;43.30;24.34
39243;BME280;29823;47.404;8.566;2023-07-09T13:06:46;96757.56;;;44.48;22.99
39243;BME280;29823;47.404;8.566;2023-07-09T13:09:20;96749.34;;;43.81;23.88
39243;BME280;29823;47.404;8.566;2023-07-09T13:11:48;96761.22;;;42.85;25.62
39243;BME280;29823;47.404;8.566;2023-07-09T13:14:20;96754.13;;;44.28;22.01